createdAt,value
2023-03-16T00:00:12.910Z,-3.20
2023-03-16T00:05:36.783Z,-3.03
2023-03-16T00:10:59.866Z,-2.92
2023-03-16T00:16:22.877Z,-2.86
2023-03-16T00:21:45.252Z,-2.69
2023-03-16T00:27:07.560Z,-2.68
2023-03-16T00:32:34.590Z,-2.61
2023-03-16T00:37:57.865Z,-2.75
2023-03-16T00:43:20.486Z,-2.93
2023-03-16T00:48:44.380Z,-2.95
2023-03-16T00:54:06.769Z,-2.93
2023-03-16T00:59:29.036Z,-2.96
2023-03-16T01:04:52.579Z,-2.91
2023-03-16T01:10:16.407Z,-2.92
2023-03-16T01:15:38.794Z,-3.06
2023-03-16T01:21:01.953Z,-3.12
2023-03-16T01:26:25.606Z,-3.18
2023-03-16T01:31:48.799Z,-3.26
2023-03-16T01:37:11.649Z,-3.33
2023-03-16T01:42:34.196Z,-3.38
2023-03-16T01:47:58.178Z,-3.40
2023-03-16T01:53:22.956Z,-3.36
2023-03-16T01:58:48.959Z,-3.37
2023-03-16T02:04:28.254Z,-3.37
2023-03-16T02:09:53.368Z,-3.37
2023-03-16T02:15:16.444Z,-3.40
2023-03-16T02:21:13.789Z,-3.43
2023-03-16T02:26:59.025Z,-3.41
2023-03-16T02:32:21.912Z,-3.33
2023-03-16T02:37:46.275Z,-3.38
2023-03-16T02:43:21.588Z,-3.39
2023-03-16T02:48:56.688Z,-3.49
2023-03-16T02:54:19.176Z,-3.48
2023-03-16T02:59:41.910Z,-3.49
2023-03-16T03:05:04.191Z,-3.51
2023-03-16T03:10:27.238Z,-3.46
2023-03-16T03:15:49.702Z,-3.45
2023-03-16T03:21:12.509Z,-3.49
2023-03-16T03:26:38.363Z,-3.46
2023-03-16T03:32:01.282Z,-3.54
2023-03-16T03:37:24.643Z,-3.54
2023-03-16T03:42:46.938Z,-3.56
2023-03-16T03:48:09.153Z,-3.50
2023-03-16T03:53:31.583Z,-3.47
2023-03-16T03:58:54.114Z,-3.46
2023-03-16T04:04:16.537Z,-3.44
2023-03-16T04:09:38.892Z,-3.49
2023-03-16T04:15:01.101Z,-3.54
2023-03-16T04:20:24.302Z,-3.57
2023-03-16T04:25:46.949Z,-3.62
2023-03-16T04:31:12.484Z,-3.64
2023-03-16T04:36:34.867Z,-3.58
2023-03-16T04:41:57.172Z,-3.56
2023-03-16T04:47:20.316Z,-3.63
2023-03-16T04:52:43.381Z,-3.69
2023-03-16T04:58:05.669Z,-3.64
2023-03-16T05:03:28.682Z,-3.67
2023-03-16T05:08:51.003Z,-3.69
2023-03-16T05:14:13.385Z,-3.73
2023-03-16T05:19:35.761Z,-3.71
2023-03-16T05:24:58.168Z,-3.71
2023-03-16T05:30:22.321Z,-3.67
2023-03-16T05:35:44.653Z,-3.59
2023-03-16T05:41:07.681Z,-3.51
2023-03-16T05:46:30.056Z,-3.36
2023-03-16T05:51:52.848Z,-3.28
2023-03-16T05:57:15.048Z,-3.18
2023-03-16T06:02:37.878Z,-3.07
2023-03-16T06:08:01.736Z,-2.91
2023-03-16T06:13:23.985Z,-2.77
2023-03-16T06:18:47.483Z,-2.62
2023-03-16T06:24:09.718Z,-2.47
2023-03-16T06:29:31.983Z,-2.29
2023-03-16T06:34:54.450Z,-2.08
2023-03-16T06:40:17.999Z,-1.87
2023-03-16T06:45:40.413Z,-1.65
2023-03-16T06:51:04.197Z,-1.48
2023-03-16T06:56:28.087Z,-1.35
2023-03-16T07:01:51.325Z,-1.14
2023-03-16T07:07:13.885Z,-1.00
2023-03-16T07:12:37.142Z,-0.81
2023-03-16T07:18:00.176Z,-0.56
2023-03-16T07:23:24.657Z,-0.14
2023-03-16T07:28:47.581Z,0.17
2023-03-16T07:34:10.378Z,0.28
2023-03-16T07:39:32.595Z,0.36
2023-03-16T07:44:55.441Z,0.65
2023-03-16T07:50:19.863Z,0.76
2023-03-16T07:55:43.195Z,0.89
2023-03-16T08:01:07.508Z,1.04
2023-03-16T08:06:30.067Z,0.91
2023-03-16T08:11:52.461Z,1.14
2023-03-16T08:17:15.203Z,1.35
2023-03-16T08:22:37.574Z,1.25
2023-03-16T08:28:00.439Z,1.35
2023-03-16T08:33:23.669Z,1.35
2023-03-16T08:39:03.871Z,1.36
2023-03-16T08:44:13.386Z,1.76
2023-03-16T08:49:37.575Z,1.93
2023-03-16T08:55:03.931Z,2.10
2023-03-16T09:00:25.732Z,2.12
2023-03-16T09:05:50.080Z,2.08
2023-03-16T09:11:15.791Z,2.04
2023-03-16T09:16:40.854Z,2.21
2023-03-16T09:22:04.636Z,2.10
2023-03-16T09:27:27.818Z,2.02
2023-03-16T09:32:51.193Z,2.17
2023-03-16T09:38:15.188Z,2.26
2023-03-16T09:44:05.413Z,2.18
2023-03-16T09:49:38.333Z,2.18
2023-03-16T09:55:05.624Z,2.31
2023-03-16T10:00:42.166Z,2.37
2023-03-16T10:06:12.593Z,2.41
2023-03-16T10:12:01.262Z,2.43
2023-03-16T10:17:33.860Z,2.70
2023-03-16T10:23:02.883Z,2.62
2023-03-16T10:28:32.604Z,2.57
2023-03-16T10:33:55.963Z,2.49
2023-03-16T10:39:28.614Z,2.33
2023-03-16T10:44:53.325Z,2.28
2023-03-16T10:50:33.133Z,2.42
2023-03-16T10:56:00.204Z,2.70
2023-03-16T11:01:27.723Z,2.79
2023-03-16T11:07:00.507Z,2.83
2023-03-16T11:12:44.063Z,3.02
2023-03-16T11:18:10.067Z,3.28
2023-03-16T11:23:42.485Z,3.14
2023-03-16T11:29:10.322Z,3.25
2023-03-16T11:34:49.934Z,3.37
2023-03-16T11:40:29.517Z,3.57
2023-03-16T11:46:17.023Z,3.80
2023-03-16T11:51:56.399Z,4.02
2023-03-16T11:57:52.599Z,3.64
2023-03-16T12:03:40.668Z,3.47
2023-03-16T12:09:48.570Z,3.26
2023-03-16T12:15:44.220Z,3.20
2023-03-16T12:21:15.480Z,3.48
2023-03-16T12:26:46.396Z,3.72
2023-03-16T12:32:19.997Z,3.62
2023-03-16T12:37:53.618Z,3.54
2023-03-16T12:43:27.371Z,3.38
2023-03-16T12:48:54.681Z,3.48
2023-03-16T12:54:28.155Z,3.39
2023-03-16T13:00:06.587Z,3.53
2023-03-16T13:05:44.640Z,3.52
2023-03-16T13:11:24.593Z,3.27
2023-03-16T13:16:50.112Z,3.44
2023-03-16T13:22:38.649Z,3.53
2023-03-16T13:28:05.621Z,3.62
2023-03-16T13:33:41.352Z,3.51
2023-03-16T13:39:14.551Z,3.56
2023-03-16T13:44:37.701Z,3.59
2023-03-16T13:50:08.938Z,3.56
2023-03-16T13:55:44.215Z,3.72
2023-03-16T14:01:25.672Z,3.95
2023-03-16T14:12:31.384Z,4.38
2023-03-16T14:17:55.659Z,5.86
2023-03-16T14:23:25.000Z,6.12
2023-03-16T14:28:50.745Z,5.40
2023-03-16T14:34:29.771Z,5.02
2023-03-16T14:39:52.804Z,4.98
2023-03-16T14:45:17.778Z,5.01
2023-03-16T14:50:44.512Z,5.03
2023-03-16T14:56:10.588Z,6.35
2023-03-16T15:01:34.536Z,6.02
2023-03-16T15:06:57.396Z,7.18
2023-03-16T15:12:26.402Z,6.74
2023-03-16T15:17:50.854Z,6.36
2023-03-16T15:23:15.759Z,6.23
2023-03-16T15:28:40.386Z,5.90
2023-03-16T15:34:03.257Z,5.55
2023-03-16T15:39:28.671Z,5.95
2023-03-16T15:44:51.285Z,6.22
2023-03-16T15:50:14.520Z,7.73
2023-03-16T15:55:47.382Z,7.96
2023-03-16T16:01:13.724Z,7.97
2023-03-16T16:06:36.570Z,8.18
2023-03-16T16:11:59.479Z,8.51
2023-03-16T16:23:03.586Z,7.23
2023-03-16T16:28:38.724Z,6.77
2023-03-16T16:34:01.357Z,6.71
2023-03-16T16:39:24.277Z,5.81
2023-03-16T16:44:48.047Z,4.76
2023-03-16T16:50:13.733Z,4.34
2023-03-16T16:55:37.524Z,3.80
2023-03-16T17:01:02.888Z,3.39
2023-03-16T17:06:29.803Z,2.98
2023-03-16T17:11:55.581Z,2.58
2023-03-16T17:17:22.534Z,2.41
2023-03-16T17:22:46.087Z,2.00
2023-03-16T17:28:10.467Z,1.44
2023-03-16T17:33:35.381Z,1.19
2023-03-16T17:38:58.840Z,0.97
2023-03-16T17:44:24.302Z,0.60
2023-03-16T17:49:48.367Z,0.28
2023-03-16T17:55:11.823Z,0.28
2023-03-16T18:00:42.635Z,0.15
2023-03-16T18:06:05.303Z,-0.30
2023-03-16T18:11:42.762Z,-0.68
2023-03-16T18:17:05.908Z,-0.87
2023-03-16T18:22:33.898Z,-1.10
2023-03-16T18:27:56.084Z,-1.30
2023-03-16T18:33:25.562Z,-1.58
2023-03-16T18:38:55.055Z,-1.59
2023-03-16T18:44:30.985Z,-1.37
2023-03-16T18:49:57.263Z,-1.31
2023-03-16T18:55:23.965Z,-1.35
2023-03-16T19:00:46.399Z,-1.43
2023-03-16T19:06:10.959Z,-1.47
2023-03-16T19:11:34.449Z,-1.56
2023-03-16T19:16:57.610Z,-1.79
2023-03-16T19:22:24.226Z,-1.78
2023-03-16T19:27:48.575Z,-1.94
2023-03-16T19:38:47.294Z,-1.98
2023-03-16T19:44:13.852Z,-2.07
2023-03-16T19:49:38.596Z,-1.98
2023-03-16T19:55:00.836Z,-2.08
2023-03-16T20:00:27.838Z,-2.19
2023-03-16T20:05:50.553Z,-2.01
2023-03-16T20:11:32.885Z,-2.11
2023-03-16T20:16:56.000Z,-2.12
2023-03-16T20:22:27.977Z,-2.14
2023-03-16T20:27:51.172Z,-2.35
2023-03-16T20:33:15.242Z,-2.46
2023-03-16T20:38:37.829Z,-2.62
2023-03-16T20:44:02.084Z,-2.76
2023-03-16T20:49:39.557Z,-2.77
2023-03-16T20:55:05.600Z,-2.58
2023-03-16T21:00:44.491Z,-2.54
2023-03-16T21:06:08.926Z,-2.61
2023-03-16T21:11:43.510Z,-2.62
2023-03-16T21:17:08.553Z,-2.60
2023-03-16T21:22:40.308Z,-2.82
2023-03-16T21:28:03.637Z,-2.71
2023-03-16T21:33:43.515Z,-2.67
2023-03-16T21:39:06.875Z,-2.56
2023-03-16T21:44:29.641Z,-2.80
2023-03-16T21:49:52.012Z,-2.82
2023-03-16T21:55:23.946Z,-2.90
2023-03-16T22:00:47.685Z,-2.97
2023-03-16T22:06:13.206Z,-2.94
2023-03-16T22:11:38.177Z,-2.94
2023-03-16T22:17:02.088Z,-3.02
2023-03-16T22:22:27.280Z,-2.87
2023-03-16T22:27:49.507Z,-2.86
2023-03-16T22:33:14.171Z,-2.91
2023-03-16T22:38:36.570Z,-2.87
2023-03-16T22:44:02.001Z,-2.71
2023-03-16T22:49:35.124Z,-2.67
2023-03-16T22:54:58.464Z,-2.67
2023-03-16T23:00:23.294Z,-2.51
2023-03-16T23:05:47.303Z,-2.40
2023-03-16T23:11:11.306Z,-2.28
2023-03-16T23:16:43.569Z,-2.22
2023-03-16T23:22:09.182Z,-2.07
2023-03-16T23:27:39.024Z,-2.05
2023-03-16T23:32:57.015Z,-2.07
2023-03-16T23:38:19.653Z,-2.07
2023-03-16T23:43:42.049Z,-2.08
2023-03-16T23:49:08.794Z,-1.89
2023-03-16T23:54:38.666Z,-1.83
